Time;durP1;ratioP1;P1;durP2;ratioP2;P2;SDS_P1;SDS_P2;PMS_P1;PMS_P2;Temp;Humidity;BMP_temperature;BMP_pressure;BME280_temperature;BME280_humidity;BME280_pressure;Samples;Min_cycle;Max_cycle;Signal;HPM_P1;HPM_P2
2022/11/30 00:02:19;;;;;;;50.55;26.38;;;;;;;6.72;100.00;102259.75;5133600;27;20538;-79
2022/11/30 00:04:44;;;;;;;52.95;27.15;;;;;;;6.73;100.00;102263.16;5133564;27;20032;-77
2022/11/30 00:07:09;;;;;;;52.88;25.70;;;;;;;6.73;100.00;102263.16;5133713;27;20050;-77
2022/11/30 00:09:34;;;;;;;45.35;27.08;;;;;;;6.73;100.00;102264.00;5133663;27;20023;-78
2022/11/30 00:12:00;;;;;;;49.20;25.73;;;;;;;6.69;100.00;102264.97;5133583;27;20055;-76
2022/11/30 00:14:25;;;;;;;53.15;27.13;;;;;;;6.72;100.00;102269.19;5133484;27;20442;-77
2022/11/30 00:16:50;;;;;;;51.28;24.80;;;;;;;6.61;100.00;102254.03;5133500;27;20071;-78
2022/11/30 00:19:16;;;;;;;51.45;25.40;;;;;;;6.73;100.00;102268.31;5133482;27;20032;-77
2022/11/30 00:21:41;;;;;;;50.80;25.73;;;;;;;6.73;100.00;102263.16;5133421;27;20016;-75
2022/11/30 00:24:06;;;;;;;50.30;26.42;;;;;;;6.72;100.00;102267.47;5133430;27;20416;-78
2022/11/30 00:26:32;;;;;;;52.42;25.05;;;;;;;6.73;100.00;102274.28;5137238;27;20054;-77
2022/11/30 00:28:57;;;;;;;54.38;23.90;;;;;;;6.72;100.00;102272.59;5136838;27;20163;-79
2022/11/30 00:31:23;;;;;;;52.92;22.88;;;;;;;6.74;100.00;102270.81;5137001;27;20031;-76
2022/11/30 00:33:49;;;;;;;43.42;22.23;;;;;;;6.72;100.00;102276.88;5137116;27;20072;-80
2022/11/30 00:36:17;;;;;;;43.55;22.17;;;;;;;6.73;100.00;102273.44;5136706;27;20462;-78
2022/11/30 00:38:43;;;;;;;39.45;22.95;;;;;;;6.54;100.00;102248.19;5136980;27;20470;-78
2022/11/30 00:41:09;;;;;;;40.38;20.80;;;;;;;6.71;100.00;102272.63;5137023;27;20027;-77
2022/11/30 00:43:35;;;;;;;43.65;21.50;;;;;;;6.68;100.00;102270.13;5136961;27;20080;-79
2022/11/30 00:46:00;;;;;;;37.60;20.83;;;;;;;6.56;100.00;102249.00;5136610;27;20027;-75
2022/11/30 00:48:26;;;;;;;37.75;20.70;;;;;;;6.69;100.00;102275.25;5136897;27;20058;-75
2022/11/30 00:50:51;;;;;;;40.88;20.67;;;;;;;6.61;100.00;102260.00;5136492;27;20392;-76
2022/11/30 00:53:17;;;;;;;37.97;20.10;;;;;;;6.65;100.00;102272.75;5136583;27;20436;-75
2022/11/30 00:55:43;;;;;;;35.92;20.27;;;;;;;6.67;100.00;102282.09;5137017;27;20023;-78
2022/11/30 00:58:09;;;;;;;37.50;20.42;;;;;;;6.67;100.00;102276.13;5136661;27;20042;-76
2022/11/30 01:00:35;;;;;;;35.00;20.38;;;;;;;6.67;100.00;102276.97;5136538;27;20375;-75
2022/11/30 01:03:01;;;;;;;34.20;19.85;;;;;;;6.67;100.00;102271.00;5136499;27;20046;-75
2022/11/30 01:05:27;;;;;;;36.72;19.90;;;;;;;6.55;100.00;102257.56;5136363;27;20041;-76
2022/11/30 01:07:52;;;;;;;40.13;20.42;;;;;;;6.66;100.00;102266.75;5136537;27;20106;-74
2022/11/30 01:10:17;;;;;;;37.83;20.42;;;;;;;6.62;100.00;102271.13;5136428;27;20031;-75
2022/11/30 01:12:43;;;;;;;37.42;20.88;;;;;;;6.65;100.00;102280.47;5136334;27;20462;-75
2022/11/30 01:15:09;;;;;;;35.05;19.02;;;;;;;6.48;100.00;102261.16;5136369;27;20432;-77
2022/11/30 01:17:34;;;;;;;37.53;21.13;;;;;;;6.56;100.00;102273.81;5135038;27;20478;-75
2022/11/30 01:19:59;;;;;;;34.72;19.02;;;;;;;6.47;100.00;102258.63;5136161;27;20051;-75
2022/11/30 01:22:25;;;;;;;32.58;19.98;;;;;;;6.59;100.00;102279.75;5136043;27;20027;-79
2022/11/30 01:24:50;;;;;;;31.27;18.70;;;;;;;6.55;100.00;102277.25;5136281;27;20019;-81
2022/11/30 01:27:15;;;;;;;30.88;18.90;;;;;;;6.53;100.00;102286.72;5136169;27;20383;-80
2022/11/30 01:29:40;;;;;;;32.30;19.63;;;;;;;6.43;100.00;102275.84;5135783;27;20063;-79
2022/11/30 01:32:06;;;;;;;33.88;19.40;;;;;;;6.48;100.00;102278.28;5135687;27;20458;-82
2022/11/30 01:34:31;;;;;;;32.65;18.02;;;;;;;6.43;100.00;102285.25;5135887;27;20054;-82
2022/11/30 01:36:56;;;;;;;31.70;19.60;;;;;;;6.30;100.00;102277.00;5135424;27;20106;-81
2022/11/30 01:39:22;;;;;;;30.63;19.08;;;;;;;6.41;100.00;102295.56;5135738;27;20109;-82
2022/11/30 01:41:47;;;;;;;36.08;19.58;;;;;;;6.32;100.00;102276.06;5135830;27;20031;-79
2022/11/30 01:44:15;;;;;;;32.45;19.55;;;;;;;6.43;100.00;102291.22;5135921;27;20027;-81
2022/11/30 01:46:53;;;;;;;33.90;18.83;;;;;;;6.40;100.00;102285.31;5135461;27;20078;-81
2022/11/30 01:49:27;;;;;;;30.63;19.30;;;;;;;6.46;100.00;102291.16;5135672;27;20019;-77
2022/11/30 01:52:01;;;;;;;30.75;18.80;;;;;;;6.50;100.00;102286.81;5135337;27;20565;-78
2022/11/30 01:54:53;;;;;;;29.00;19.00;;;;;;;6.48;100.00;102284.25;5135696;27;20019;-76
2022/11/30 01:57:25;;;;;;;;;;;;;;;6.55;100.00;102292.66;5135871;27;20075;-81
2022/11/30 01:59:53;;;;;;;30.83;18.98;;;;;;;6.49;100.00;102288.53;5135445;27;19918;-76
2022/11/30 02:02:25;;;;;;;32.17;18.75;;;;;;;6.31;100.00;102270.97;5134924;27;20028;-74
2022/11/30 02:04:50;;;;;;;29.00;18.35;;;;;;;6.51;100.00;102307.31;5135344;27;20038;-74
2022/11/30 02:07:16;;;;;;;30.63;17.98;;;;;;;6.55;100.00;102305.50;5135224;27;20019;-75
2022/11/30 02:09:43;;;;;;;30.88;18.23;;;;;;;6.54;100.00;102306.38;5135066;27;20027;-77
2022/11/30 02:12:21;;;;;;;28.48;17.35;;;;;;;6.54;100.00;102302.09;5135175;27;20019;-82
2022/11/30 02:14:52;;;;;;;28.35;17.20;;;;;;;6.51;100.00;102297.03;5133482;27;20362;-81
2022/11/30 02:17:40;;;;;;;28.80;17.58;;;;;;;6.52;100.00;102301.28;5134919;27;20023;-79
2022/11/30 02:20:17;;;;;;;36.80;18.45;;;;;;;6.50;100.00;102308.19;5071653;28;20059;-74
2022/11/30 02:22:45;;;;;;;27.85;16.88;;;;;;;6.47;100.00;102305.66;5071700;28;20059;-76
2022/11/30 02:25:22;;;;;;;29.65;17.52;;;;;;;6.47;100.00;102302.25;5071588;28;20076;-75
2022/11/30 02:27:57;;;;;;;27.23;17.05;;;;;;;6.46;100.00;102300.56;5071697;28;20048;-76
2022/11/30 02:30:23;;;;;;;28.88;17.98;;;;;;;6.16;100.00;102254.19;5071272;28;20024;-74
2022/11/30 02:33:00;;;;;;;26.40;16.75;;;;;;;6.46;100.00;102306.53;5071215;28;20492;-76
2022/11/30 02:35:29;;;;;;;27.75;16.98;;;;;;;6.39;100.00;102297.31;5071476;28;20086;-74
2022/11/30 02:37:56;;;;;;;27.45;17.15;;;;;;;6.40;100.00;102299.00;5071365;28;20037;-74
2022/11/30 02:40:22;;;;;;;27.70;16.90;;;;;;;6.22;100.00;102266.06;5071642;28;20029;-74
2022/11/30 02:42:50;;;;;;;26.40;18.13;;;;;;;6.43;100.00;102301.50;5071288;28;20059;-78
2022/11/30 02:45:34;;;;;;;26.85;17.88;;;;;;;6.49;100.00;102308.19;5071438;28;20044;-80
2022/11/30 02:48:13;;;;;;;27.50;18.05;;;;;;;6.50;100.00;102304.78;5070388;28;20032;-82
2022/11/30 02:50:44;;;;;;;28.42;18.42;;;;;;;6.50;100.00;102308.19;5071086;28;20047;-77
2022/11/30 02:53:10;;;;;;;26.23;17.75;;;;;;;6.49;100.00;102310.75;5071089;28;20056;-74
2022/11/30 02:55:36;;;;;;;28.50;18.02;;;;;;;6.49;100.00;102311.63;5071078;28;20036;-74
2022/11/30 02:58:01;;;;;;;28.05;17.98;;;;;;;6.24;100.00;102270.25;5127236;27;20035;-82
2022/11/30 03:00:26;;;;;;;29.67;16.95;;;;;;;6.41;100.00;102300.69;5134482;27;20019;-80
2022/11/30 03:02:52;;;;;;;25.40;17.15;;;;;;;6.41;100.00;102303.25;5134176;27;20359;-76
2022/11/30 03:05:17;;;;;;;28.15;17.77;;;;;;;6.37;100.00;102296.47;5134016;27;20033;-75
2022/11/30 03:07:43;;;;;;;28.35;18.55;;;;;;;6.49;100.00;102321.03;5134272;27;20102;-80
2022/11/30 03:10:09;;;;;;;23.90;16.20;;;;;;;6.44;100.00;102316.00;5134240;27;20052;-81
2022/11/30 03:12:34;;;;;;;26.85;17.88;;;;;;;6.34;100.00;102294.00;5132810;28;20027;-81
2022/11/30 03:15:00;;;;;;;26.02;16.65;;;;;;;6.46;100.00;102315.97;5134286;27;20046;-75
2022/11/30 03:17:25;;;;;;;27.52;17.50;;;;;;;6.36;100.00;102293.94;5133948;27;20482;-79
2022/11/30 03:19:51;;;;;;;27.90;17.52;;;;;;;6.43;100.00;102298.91;5134193;27;20023;-74
2022/11/30 03:22:16;;;;;;;25.13;17.20;;;;;;;6.45;100.00;102312.56;5134114;27;20073;-81
2022/11/30 03:24:41;;;;;;;27.27;17.23;;;;;;;6.38;100.00;102295.59;5134087;27;20030;-82
2022/11/30 03:27:07;;;;;;;23.38;16.58;;;;;;;6.35;100.00;102294.84;5134014;27;20114;-78
2022/11/30 03:29:32;;;;;;;25.38;16.25;;;;;;;6.41;100.00;102310.94;5134026;27;20409;-81
2022/11/30 03:31:58;;;;;;;25.83;17.02;;;;;;;6.29;100.00;102295.81;5133945;27;20015;-75
2022/11/30 03:34:25;;;;;;;30.52;17.65;;;;;;;6.38;100.00;102316.13;5133981;27;20487;-79
2022/11/30 03:36:50;;;;;;;26.95;17.02;;;;;;;6.30;100.00;102305.22;5133821;27;20356;-79
2022/11/30 03:39:16;;;;;;;25.15;16.30;;;;;;;6.25;100.00;102301.88;5134021;27;20125;-80
2022/11/30 03:41:41;;;;;;;26.05;16.35;;;;;;;6.21;100.00;102302.84;5133962;27;20027;-74
2022/11/30 03:44:06;;;;;;;25.48;17.08;;;;;;;6.29;100.00;102318.88;5132850;28;20115;-77
2022/11/30 03:46:32;;;;;;;26.20;17.23;;;;;;;6.27;100.00;102318.09;5133923;27;20118;-76
2022/11/30 03:48:58;;;;;;;28.40;16.95;;;;;;;6.19;100.00;102305.41;5133449;27;20462;-75
2022/11/30 03:51:23;;;;;;;25.73;17.25;;;;;;;6.25;100.00;102318.13;5133628;27;20027;-76
2022/11/30 03:53:49;;;;;;;29.45;17.67;;;;;;;6.12;100.00;102296.19;5133643;27;20102;-76
2022/11/30 03:56:15;;;;;;;27.20;16.98;;;;;;;6.08;100.00;102298.81;5134000;27;20029;-78
2022/11/30 03:58:41;;;;;;;28.90;17.13;;;;;;;5.97;100.00;102279.38;5134923;27;20019;-78
2022/11/30 04:01:15;;;;;;;27.65;17.02;;;;;;;6.17;100.00;102319.16;5137846;27;20032;-77
2022/11/30 04:03:41;;;;;;;25.30;16.40;;;;;;;6.16;100.00;102326.00;5137601;27;20019;-76
2022/11/30 04:06:08;;;;;;;24.20;16.40;;;;;;;6.14;100.00;102319.22;5137532;27;20027;-77
2022/11/30 04:08:34;;;;;;;24.75;17.15;;;;;;;6.00;100.00;102304.97;5137752;27;20463;-77
2022/11/30 04:11:00;;;;;;;24.35;16.35;;;;;;;6.01;100.00;102303.25;5137690;27;20110;-78
2022/11/30 04:13:27;;;;;;;25.40;17.60;;;;;;;6.02;100.00;102310.91;5137591;27;20019;-78
2022/11/30 04:15:53;;;;;;;25.92;16.40;;;;;;;6.05;100.00;102320.25;5137508;27;20023;-81
2022/11/30 04:18:20;;;;;;;25.65;16.05;;;;;;;6.03;100.00;102320.28;5137204;27;20055;-81
2022/11/30 04:20:46;;;;;;;26.90;16.55;;;;;;;6.08;100.00;102324.47;5137204;27;20031;-80
2022/11/30 04:23:11;;;;;;;26.85;16.60;;;;;;;6.06;100.00;102323.66;5137247;27;20023;-80
2022/11/30 04:25:40;;;;;;;30.55;17.23;;;;;;;6.03;100.00;102322.00;5137303;27;20107;-79
2022/11/30 04:28:06;;;;;;;25.65;16.58;;;;;;;5.93;100.00;102313.66;5137191;27;20381;-81
2022/11/30 04:30:33;;;;;;;26.45;16.23;;;;;;;5.80;100.00;102286.56;5135932;27;20023;-82
2022/11/30 04:32:59;;;;;;;27.30;17.60;;;;;;;5.89;100.00;102300.88;5137258;27;20027;-82
2022/11/30 04:35:26;;;;;;;25.40;16.27;;;;;;;5.90;100.00;102306.03;5136886;27;20474;-80
2022/11/30 04:37:51;;;;;;;25.13;15.90;;;;;;;5.84;100.00;102302.69;5136966;27;20042;-80
2022/11/30 04:40:16;;;;;;;23.48;15.45;;;;;;;5.96;100.00;102326.41;5137140;27;20032;-81
2022/11/30 04:42:42;;;;;;;27.48;16.35;;;;;;;5.93;100.00;102329.03;5135649;27;20030;-79
2022/11/30 04:45:08;;;;;;;26.38;16.98;;;;;;;5.94;100.00;102327.31;5136851;27;20365;-79
2022/11/30 04:47:33;;;;;;;27.25;17.55;;;;;;;5.87;100.00;102312.88;5136885;27;20087;-81
2022/11/30 04:49:58;;;;;;;27.98;17.75;;;;;;;5.80;100.00;102304.50;5136467;27;20034;-81
2022/11/30 04:52:24;;;;;;;30.15;17.15;;;;;;;5.91;100.00;102328.22;5136327;27;20043;-75
2022/11/30 04:54:50;;;;;;;26.58;17.70;;;;;;;5.85;100.00;102323.19;5136660;27;20523;-82
2022/11/30 04:57:16;;;;;;;28.50;17.65;;;;;;;5.63;100.00;102293.72;5136592;27;20038;-81
2022/11/30 04:59:41;;;;;;;27.13;17.92;;;;;;;5.81;100.00;102328.41;5136523;27;20031;-77
2022/11/30 05:02:07;;;;;;;29.75;18.77;;;;;;;5.61;100.00;102293.75;5136614;27;20042;-75
2022/11/30 05:04:32;;;;;;;30.42;18.58;;;;;;;5.81;100.00;102330.97;5136281;27;20019;-81
2022/11/30 05:06:57;;;;;;;30.33;18.88;;;;;;;5.74;100.00;102317.41;5136373;27;20044;-81
2022/11/30 05:09:23;;;;;;;30.58;19.10;;;;;;;5.80;100.00;102327.56;5136273;27;20355;-81
2022/11/30 05:11:48;;;;;;;28.85;18.13;;;;;;;5.79;100.00;102328.41;5135696;27;20023;-74
2022/11/30 05:14:13;;;;;;;29.63;17.92;;;;;;;5.78;100.00;102326.72;5136484;27;20076;-79
2022/11/30 05:16:39;;;;;;;25.85;17.08;;;;;;;5.76;100.00;102331.03;5136104;27;20489;-82
2022/11/30 05:19:04;;;;;;;31.38;19.65;;;;;;;5.68;100.00;102320.09;5136227;27;20374;-81
2022/11/30 05:21:30;;;;;;;28.02;18.20;;;;;;;5.64;100.00;102315.91;5136078;27;20027;-75
2022/11/30 05:23:55;;;;;;;29.95;18.85;;;;;;;5.66;100.00;102311.59;5136032;27;20058;-80
2022/11/30 05:26:21;;;;;;;31.80;17.95;;;;;;;5.75;100.00;102335.31;5134698;27;20039;-80
2022/11/30 05:28:46;;;;;;;26.05;17.13;;;;;;;5.69;100.00;102329.47;5136382;27;20029;-80
2022/11/30 05:31:11;;;;;;;27.45;17.50;;;;;;;5.60;100.00;102316.81;5135691;27;20102;-75
2022/11/30 05:33:37;;;;;;;27.63;18.13;;;;;;;5.71;100.00;102336.28;5135902;27;20142;-78
2022/11/30 05:36:02;;;;;;;33.85;18.95;;;;;;;5.69;100.00;102332.03;5135619;27;20025;-80
2022/11/30 05:38:28;;;;;;;31.60;18.55;;;;;;;5.72;100.00;102335.38;5135773;27;20038;-80
2022/11/30 05:41:00;;;;;;;33.15;20.40;;;;;;;5.72;100.00;102337.13;5135620;27;20102;-80
2022/11/30 05:43:25;;;;;;;33.15;18.48;;;;;;;5.59;100.00;102328.78;5135732;27;20015;-78
2022/11/30 05:45:50;;;;;;;31.30;19.23;;;;;;;5.72;100.00;102343.09;5135513;27;20465;-80
2022/11/30 05:48:16;;;;;;;30.27;18.92;;;;;;;5.73;100.00;102359.31;5135698;27;20041;-76
2022/11/30 05:50:41;;;;;;;33.53;19.40;;;;;;;5.73;100.00;102349.06;5135304;27;20035;-80
2022/11/30 05:53:06;;;;;;;31.33;18.77;;;;;;;5.72;100.00;102350.78;5135311;27;20058;-76
2022/11/30 05:55:32;;;;;;;27.92;18.02;;;;;;;5.69;100.00;102357.66;5135444;27;20032;-80
2022/11/30 05:57:57;;;;;;;28.33;17.77;;;;;;;5.67;100.00;102354.28;5135341;27;20023;-78
2022/11/30 06:00:22;;;;;;;26.58;16.83;;;;;;;5.62;100.00;102344.13;5135456;27;20023;-76
2022/11/30 06:02:53;;;;;;;28.17;18.50;;;;;;;5.46;100.00;102319.63;5135439;27;20030;-80
2022/11/30 06:05:18;;;;;;;27.30;17.87;;;;;;;5.69;100.00;102355.94;5135198;27;20438;-80
2022/11/30 06:07:44;;;;;;;27.10;17.23;;;;;;;5.66;100.00;102362.84;5135303;27;20363;-77
2022/11/30 06:10:10;;;;;;;27.88;17.90;;;;;;;5.47;100.00;102323.88;5135030;27;20035;-78
2022/11/30 06:12:35;;;;;;;31.08;19.25;;;;;;;5.60;100.00;102345.84;5135319;27;20102;-79
2022/11/30 06:15:00;;;;;;;31.02;19.33;;;;;;;5.70;100.00;102359.34;5134947;27;20061;-79
2022/11/30 06:17:26;;;;;;;32.10;19.55;;;;;;;5.72;100.00;102370.44;5135122;27;20043;-75
2022/11/30 06:19:51;;;;;;;31.35;18.80;;;;;;;5.61;100.00;102344.16;5135042;27;20019;-75
2022/11/30 06:22:17;;;;;;;29.40;18.92;;;;;;;5.72;100.00;102362.75;5133397;27;20156;-78
2022/11/30 06:24:42;;;;;;;30.17;18.98;;;;;;;5.65;100.00;102354.31;5134852;27;20026;-81
2022/11/30 06:27:07;;;;;;;33.03;19.35;;;;;;;5.61;100.00;102350.13;5134671;27;20027;-76
2022/11/30 06:29:33;;;;;;;32.40;20.13;;;;;;;5.73;100.00;102362.72;5135025;27;20023;-77
2022/11/30 06:31:58;;;;;;;28.40;18.30;;;;;;;5.72;100.00;102367.88;5134952;27;20019;-80
2022/11/30 06:34:23;;;;;;;27.92;19.08;;;;;;;5.72;100.00;102368.72;5134821;27;20070;-75
2022/11/30 06:36:49;;;;;;;29.05;19.25;;;;;;;5.75;100.00;102365.25;5134597;27;20023;-75
2022/11/30 06:39:14;;;;;;;31.08;18.85;;;;;;;5.73;100.00;102370.41;5134823;27;20031;-76
2022/11/30 06:41:39;;;;;;;32.17;19.83;;;;;;;5.76;100.00;102374.63;5134363;27;20019;-80
2022/11/30 06:44:09;;;;;;;32.63;20.27;;;;;;;5.74;100.00;102366.13;5135126;27;20374;-75
2022/11/30 06:46:34;;;;;;;35.20;20.50;;;;;;;5.77;100.00;102373.75;5134670;27;20061;-83
2022/11/30 06:49:00;;;;;;;31.52;19.58;;;;;;;5.74;100.00;102368.69;5134617;27;20066;-76
2022/11/30 06:51:26;;;;;;;35.03;20.40;;;;;;;5.74;100.00;102371.25;5134369;27;20071;-76
2022/11/30 06:53:52;;;;;;;30.38;19.38;;;;;;;5.63;100.00;102355.22;5134621;27;20066;-83
2022/11/30 06:56:17;;;;;;;34.72;19.95;;;;;;;5.71;100.00;102379.00;5134490;27;20109;-83
2022/11/30 06:58:43;;;;;;;30.38;18.80;;;;;;;5.67;100.00;102372.22;5134606;27;20025;-83
2022/11/30 07:01:11;;;;;;;29.77;18.50;;;;;;;5.59;100.00;102379.19;5134340;27;20058;-81
2022/11/30 07:03:38;;;;;;;35.03;20.08;;;;;;;5.53;100.00;102372.47;5134379;27;20038;-82
2022/11/30 07:06:12;;;;;;;31.60;19.27;;;;;;;5.57;100.00;102383.50;5134253;27;20027;-81
2022/11/30 07:08:38;;;;;;;31.75;19.35;;;;;;;5.54;100.00;102394.66;5134280;27;20027;-76
2022/11/30 07:11:05;;;;;;;32.10;19.23;;;;;;;5.48;100.00;102381.94;5133900;27;20379;-76
2022/11/30 07:13:30;;;;;;;32.53;19.60;;;;;;;5.48;100.00;102384.50;5134500;27;20387;-78
2022/11/30 07:15:56;;;;;;;31.27;19.05;;;;;;;5.43;100.00;102376.91;5134160;27;20020;-80
2022/11/30 07:18:21;;;;;;;31.55;18.45;;;;;;;5.52;100.00;102398.13;5134164;27;20038;-79
2022/11/30 07:20:46;;;;;;;31.15;18.77;;;;;;;5.51;100.00;102399.00;5134230;27;20088;-81
2022/11/30 07:26:06;;;;;;;30.70;18.38;;;;;;;5.49;100.00;102404.13;5134278;28;20390;-76
2022/11/30 07:28:35;;;;;;;32.60;18.17;;;;;;;5.46;100.00;102402.47;5134025;27;20034;-76
2022/11/30 07:31:02;;;;;;;29.75;18.65;;;;;;;5.41;100.00;102399.16;5134033;27;20031;-76
2022/11/30 07:33:27;;;;;;;33.25;19.35;;;;;;;5.53;100.00;102417.75;5134823;27;20023;-83
2022/11/30 07:35:53;;;;;;;31.30;18.77;;;;;;;5.46;100.00;102415.28;5138222;27;20051;-79
2022/11/30 07:38:19;;;;;;;33.60;20.10;;;;;;;5.60;100.00;102429.56;5137722;27;20020;-80
2022/11/30 07:40:44;;;;;;;33.67;19.90;;;;;;;5.60;100.00;102429.56;5138382;27;20038;-81
2022/11/30 07:43:09;;;;;;;36.00;20.35;;;;;;;5.57;100.00;102419.38;5138175;27;20377;-81
2022/11/30 07:45:35;;;;;;;29.90;18.50;;;;;;;5.64;100.00;102431.22;5138168;27;20474;-79
2022/11/30 07:48:00;;;;;;;30.45;18.80;;;;;;;5.63;100.00;102429.53;5138097;27;20103;-82
2022/11/30 07:50:25;;;;;;;29.23;18.73;;;;;;;5.61;100.00;102429.56;5137946;27;20026;-81
2022/11/30 07:52:50;;;;;;;29.73;18.17;;;;;;;5.61;100.00;102438.97;5137531;27;20081;-79
2022/11/30 07:55:16;;;;;;;28.02;17.83;;;;;;;5.55;100.00;102416.84;5137749;27;20031;-82
2022/11/30 07:57:42;;;;;;;27.17;16.77;;;;;;;5.65;100.00;102441.44;5138118;27;20023;-80
2022/11/30 08:00:08;;;;;;;28.13;18.17;;;;;;;5.70;100.00;102437.09;5137743;27;20019;-82
2022/11/30 08:02:33;;;;;;;29.33;17.60;;;;;;;5.70;100.00;102437.09;5137782;27;20033;-81
2022/11/30 08:04:59;;;;;;;27.75;17.00;;;;;;;5.69;100.00;102435.38;5137617;27;20031;-82
2022/11/30 08:07:24;;;;;;;28.45;17.08;;;;;;;5.50;100.00;102412.66;5137296;27;20023;-81
2022/11/30 08:09:50;;;;;;;31.05;19.50;;;;;;;5.67;100.00;102436.28;5137263;27;20034;-79
2022/11/30 08:12:15;;;;;;;33.25;18.45;;;;;;;5.67;100.00;102443.97;5131510;27;20015;-79
2022/11/30 08:14:41;;;;;;;34.97;19.45;;;;;;;5.68;100.00;102451.63;5130133;27;20023;-80
2022/11/30 08:17:07;;;;;;;33.30;21.25;;;;;;;5.51;100.00;102419.50;5137581;27;20035;-81
2022/11/30 08:19:33;;;;;;;38.83;21.90;;;;;;;5.71;100.00;102448.19;5137171;27;20033;-81
2022/11/30 08:21:58;;;;;;;37.13;22.83;;;;;;;5.75;100.00;102455.81;5137183;27;20027;-81
2022/11/30 08:24:23;;;;;;;35.63;21.27;;;;;;;5.79;100.00;102455.72;5137192;27;20029;-78
2022/11/30 08:26:51;;;;;;;35.47;21.60;;;;;;;5.70;100.00;102449.91;5137058;27;20028;-80
2022/11/30 08:29:17;;;;;;;37.78;21.73;;;;;;;5.73;100.00;102462.69;5137107;27;20027;-81
2022/11/30 08:31:42;;;;;;;38.03;21.92;;;;;;;5.66;100.00;102463.63;5137185;27;20023;-79
2022/11/30 08:34:12;;;;;;;40.58;22.77;;;;;;;5.60;100.00;102465.44;5136997;27;20035;-81
2022/11/30 08:36:39;;;;;;;41.72;23.25;;;;;;;5.45;100.00;102458.84;5136938;27;20030;-74
2022/11/30 08:39:06;;;;;;;39.28;23.27;;;;;;;5.44;100.00;102463.13;5136910;27;20027;-79
2022/11/30 08:41:33;;;;;;;40.33;23.95;;;;;;;5.46;100.00;102469.06;5137035;27;20023;-80
2022/11/30 08:43:58;;;;;;;42.75;23.88;;;;;;;5.37;100.00;102461.53;5135635;27;20029;-80
2022/11/30 08:46:24;;;;;;;44.83;25.25;;;;;;;5.37;100.00;102474.34;5135935;27;20027;-80
2022/11/30 08:48:49;;;;;;;39.70;23.13;;;;;;;5.27;100.00;102459.13;5136763;27;20023;-81
2022/11/30 08:51:17;;;;;;;43.75;26.10;;;;;;;5.31;100.00;102465.88;5136730;27;20031;-77
2022/11/30 08:53:43;;;;;;;45.95;26.55;;;;;;;5.35;100.00;102470.13;5136311;27;20039;-77
2022/11/30 08:56:14;;;;;;;44.10;24.88;;;;;;;5.43;100.00;102475.97;5136480;27;20505;-78
2022/11/30 08:58:39;;;;;;;48.50;25.77;;;;;;;5.45;100.00;102480.19;5135398;27;20046;-80
2022/11/30 09:01:17;;;;;;;48.60;26.27;;;;;;;5.47;100.00;102475.03;5136948;27;20027;-80
2022/11/30 09:03:43;;;;;;;49.22;26.70;;;;;;;5.47;100.00;102475.91;5135230;27;20390;-72
2022/11/30 09:06:13;;;;;;;48.17;26.08;;;;;;;5.51;100.00;102470.75;5136730;27;20030;-75
2022/11/30 09:08:39;;;;;;;50.33;27.13;;;;;;;5.51;100.00;102475.88;5136152;27;20559;-79
2022/11/30 09:11:13;;;;;;;49.75;27.80;;;;;;;5.57;100.00;102486.00;5136518;27;20023;-76
2022/11/30 09:13:40;;;;;;;53.22;27.63;;;;;;;5.65;100.00;102486.72;5136291;27;20023;-81
2022/11/30 09:16:06;;;;;;;51.75;27.23;;;;;;;5.72;100.00;102491.75;5136475;27;20015;-72
2022/11/30 09:18:32;;;;;;;43.92;26.35;;;;;;;5.82;100.00;102491.59;5136214;27;20027;-75
2022/11/30 09:21:01;;;;;;;48.35;27.35;;;;;;;5.92;100.00;102493.16;5136267;27;20034;-81
2022/11/30 09:23:28;;;;;;;52.92;28.35;;;;;;;6.01;100.00;102498.13;5135926;27;20497;-81
2022/11/30 09:25:56;;;;;;;51.25;27.90;;;;;;;6.02;100.00;102484.44;5136117;27;20517;-82
2022/11/30 09:28:22;;;;;;;48.80;28.33;;;;;;;6.07;100.00;102474.09;5136141;27;20031;-83
2022/11/30 09:30:47;;;;;;;47.47;27.08;;;;;;;6.16;100.00;102482.47;5135736;27;20031;-77
2022/11/30 09:33:12;;;;;;;44.13;26.17;;;;;;;6.35;100.00;102506.06;5134343;27;20067;-81
2022/11/30 09:35:37;;;;;;;45.92;26.00;;;;;;;6.18;100.00;102465.31;5135915;27;20030;-76
2022/11/30 09:38:03;;;;;;;42.65;25.63;;;;;;;6.46;100.00;102505.88;5135776;27;20462;-79
2022/11/30 09:40:30;;;;;;;44.78;26.00;;;;;;;6.23;100.00;102463.53;5134387;27;20032;-80
2022/11/30 09:43:03;;;;;;;43.25;26.33;;;;;;;6.39;100.00;102470.91;5135623;27;20023;-77
2022/11/30 09:45:31;;;;;;;42.85;25.40;;;;;;;6.66;100.00;102502.91;5135684;27;20023;-78
2022/11/30 09:48:21;;;;;;;40.13;23.75;;;;;;;6.55;100.00;102478.31;5135669;27;20570;-77
2022/11/30 09:50:48;;;;;;;42.00;25.23;;;;;;;6.69;100.00;102490.88;5135504;27;20031;-81
2022/11/30 09:53:25;;;;;;;41.17;24.67;;;;;;;6.78;100.00;102492.38;5135377;27;20050;-78
2022/11/30 09:55:53;;;;;;;40.17;24.27;;;;;;;6.83;100.00;102494.00;5135307;27;20027;-81
2022/11/30 09:58:43;;;;;;;39.60;24.00;;;;;;;6.96;100.00;102493.72;5135155;27;20019;-80
2022/11/30 10:01:18;;;;;;;39.53;24.00;;;;;;;7.00;100.00;102488.50;5135272;27;20039;-75
2022/11/30 10:03:45;;;;;;;38.58;23.48;;;;;;;7.00;100.00;102472.25;5135462;27;20516;-73
2022/11/30 10:06:19;;;;;;;42.95;25.38;;;;;;;7.14;100.00;102486.47;5135279;27;20481;-78
2022/11/30 10:09:15;;;;;;;39.10;23.55;;;;;;;7.22;100.00;102488.88;5135244;27;20023;-75
2022/11/30 10:11:52;;;;;;;45.22;25.52;;;;;;;7.30;100.00;102486.16;5134763;27;20023;-81
2022/11/30 10:14:39;;;;;;;40.03;22.92;;;;;;;7.30;100.00;102465.59;5134920;27;20030;-72
2022/11/30 10:17:34;;;;;;;36.63;23.30;;;;;;;7.51;100.00;102484.81;5135106;27;20020;-75
2022/11/30 10:20:38;;;;;;;33.97;21.95;;;;;;;7.54;100.00;102485.56;5135024;27;20463;-77
2022/11/30 10:23:12;;;;;;;31.45;21.48;;;;;;;7.56;100.00;102472.66;5071591;28;20119;-76
2022/11/30 10:25:56;;;;;;;30.45;19.95;;;;;;;7.49;100.00;102459.13;5071202;28;20060;-80
2022/11/30 10:28:42;;;;;;;31.98;20.80;;;;;;;7.70;100.00;102486.03;5071442;28;20094;-76
2022/11/30 10:31:12;;;;;;;31.50;21.42;;;;;;;7.71;100.00;102487.75;5071436;28;20035;-80
2022/11/30 10:33:45;;;;;;;30.35;20.33;;;;;;;7.69;100.00;102479.22;5071476;28;20079;-77
2022/11/30 10:36:25;;;;;;;28.40;18.73;;;;;;;7.70;100.00;102486.03;5071355;28;20040;-78
2022/11/30 10:38:58;;;;;;;26.13;17.45;;;;;;;7.55;100.00;102469.25;5071271;28;20116;-77
2022/11/30 10:42:09;;;;;;;25.73;16.63;;;;;;;7.62;100.00;102463.09;5070849;28;20044;-79
2022/11/30 10:44:39;;;;;;;26.35;18.08;;;;;;;7.50;100.00;102459.97;5071332;28;20029;-78
2022/11/30 10:47:24;;;;;;;27.02;17.13;;;;;;;7.58;100.00;102468.34;5071197;28;20118;-78
2022/11/30 10:49:51;;;;;;;27.13;17.92;;;;;;;7.68;100.00;102488.66;5071275;28;20032;-79
2022/11/30 10:52:25;;;;;;;29.23;18.13;;;;;;;7.76;100.00;102484.16;5071012;28;20024;-77
2022/11/30 10:54:53;;;;;;;28.55;18.10;;;;;;;7.68;100.00;102464.69;5054087;28;20479;-81
2022/11/30 10:57:21;;;;;;;27.55;19.08;;;;;;;7.86;100.00;102492.47;5071218;28;20024;-81
2022/11/30 10:59:51;;;;;;;29.50;18.98;;;;;;;7.80;100.00;102484.09;5101263;27;20043;-77
2022/11/30 11:02:46;;;;;;;29.88;19.33;;;;;;;7.81;100.00;102475.50;5133011;27;20035;-78
2022/11/30 11:05:18;;;;;;;31.38;19.15;;;;;;;7.71;100.00;102473.16;5134564;27;20031;-82
2022/11/30 11:08:00;;;;;;;35.97;21.77;;;;;;;7.74;100.00;102475.63;5133966;27;20378;-83
2022/11/30 11:10:44;;;;;;;;;;;;;;;7.75;100.00;102471.34;5134393;27;20031;-83
2022/11/30 11:13:42;;;;;;;32.08;21.25;;;;;;;7.79;100.00;102482.41;5134361;27;19919;-83
2022/11/30 11:16:12;;;;;;;31.25;20.80;;;;;;;7.53;100.00;102441.91;5132798;28;20129;-82
2022/11/30 11:18:54;;;;;;;30.83;20.23;;;;;;;7.58;100.00;102453.78;5134160;27;20038;-83